Airfield :
LOGIN :

Register | Disclaimer

   EN    FR    IT 

 










Legend :    VFR   Marginal VFR   IFR   Intensive IFR   Very Intensive IFR
Visi :
Ceiling :
>= 8 km
>= 3000ft
5 to 8 km
1000 to 3000 ft
1500m to 5 km
500 to 1000 ft
800 to 1500m
200 to 500 ft
< 800m
< 200 ft
Symbols :   Thunderstorms  Fog  Heavy snow  Heavy precipitations  Wind > 20 kt
SIGMETs :     Misc.  Thunderstorms  Icing  Turbulence  Mountain Waves  Volcanic Ashes






- Airport Elevation : 1090 ft
- IATA code : CFE


LFLC - Clermont-Ferrand Auvergne

CURRENT METAR :
  • 220000Z AUTO 01002KT 6000 NSC M02/M03 Q1034 TEMPO 4000 BR

EXPIRED METARs :
  • 212330Z AUTO 35002KT 7000 NSC M03/M04 Q1034 TEMPO 4000 BR
  • 212300Z AUTO 00000KT 7000 NSC M02/M04 Q1034 TEMPO 4000 BR
  • 212230Z AUTO 14003KT 7000 NSC M02/M03 Q1035 TEMPO 4000 BR
  • 212200Z AUTO 32003KT 7000 NSC M01/M02 Q1035 NOSIG
  • 212130Z AUTO 28001KT 8000 NSC M01/M02 Q1035 NOSIG

TAF TAF LFLC
Valid from the 21 at 21:00 until the 22 at 21:00 UTC


212000Z 2121/2221 VRB02KT CAVOK
PROB40
TEMPO 2200/2208 4000 BR
ATIS : +33 4 73 62 74 38



MET'MAP, your aeronautical weather chart ! - Copyright ORBIFLY December 2007 - Disclaimer

ORBIFLY MET'MAP TEAM :

Programming & Development : Alexandra Zaïnal
Concept & original design : Baudouin d'Aumeries
Assistance for programming : Marc-Olivier Méhu
Technical & hardware support : Manuel Goepfert

Contact : metmap@orbifly.com




SOURCES & CREDITS :

   NOAA